Time,TemperatureF,DewpointF,PressureIn,WindDirection,WindDirectionDegrees,WindSpeedMPH,WindSpeedGustMPH,Humidity,HourlyPrecipIn,Conditions,Clouds,dailyrainin,SolarRadiationWatts/m^2,SoftwareType,DateUTC
2013-02-06 00:04:00,39.1,33.1,29.59,North,9,3.5,3.5,79,0.00,RA,,0.00,0.0,WeatherDisplay:10.37,2013-02-06 00:04:00,
2013-02-06 00:09:00,39.1,33.1,29.60,NW,321,1.1,1.1,79,0.00,RA,,0.00,0.0,WeatherDisplay:10.37,2013-02-06 00:09:00,
2013-02-06 00:14:00,39.1,33.1,29.60,NNW,347,0.0,0.6,79,0.00,CLR,,0.00,0.0,WeatherDisplay:10.37,2013-02-06 00:14:00,
2013-02-06 00:19:00,39.0,32.7,29.61,NNE,23,3.5,3.5,78,0.00,CLR,,0.00,0.0,WeatherDisplay:10.37,2013-02-06 00:19:00,
2013-02-06 00:24:00,38.9,32.6,29.62,NE,34,5.0,5.0,78,0.00,CLR,,0.00,0.0,WeatherDisplay:10.37,2013-02-06 00:24:00,
2013-02-06 00:29:00,38.9,32.6,29.62,NNE,24,2.3,2.3,78,0.00,CLR,,0.00,0.0,WeatherDisplay:10.37,2013-02-06 00:29:00,
2013-02-06 00:34:00,38.8,32.5,29.63,NE,42,2.3,2.3,78,0.00,CLR,,0.00,0.0,WeatherDisplay:10.37,2013-02-06 00:34:00,
2013-02-06 00:39:00,38.7,32.4,29.63,NNE,33,2.3,0.0,78,0.00,CLR,,0.00,0.0,WeatherDisplay:10.37,2013-02-06 00:39:00,
2013-02-06 00:44:00,38.5,32.2,29.64,NNW,342,2.3,2.3,78,0.00,CLR,,0.00,0.0,WeatherDisplay:10.37,2013-02-06 00:44:00,
2013-02-06 00:49:00,38.4,32.1,29.64,NNW,342,2.0,2.0,78,0.00,CLR,,0.00,0.0,WeatherDisplay:10.37,2013-02-06 00:49:00,
2013-02-06 00:54:00,38.2,31.9,29.65,SE,145,3.5,3.5,78,0.00,CLR,,0.00,0.0,WeatherDisplay:10.37,2013-02-06 00:54:00,
2013-02-06 01:00:00,38.1,31.8,29.65,North,355,0.0,0.5,78,0.00,CLR,,0.00,0.0,WeatherDisplay:10.37,2013-02-06 01:00:00,
2013-02-06 01:04:00,38.0,31.7,29.65,West,269,3.5,3.5,78,0.00,CLR,,0.00,0.0,WeatherDisplay:10.37,2013-02-06 01:04:00,
2013-02-06 01:10:00,38.0,31.7,29.66,NNW,330,1.1,1.1,78,0.00,CLR,,0.00,0.0,WeatherDisplay:10.37,2013-02-06 01:10:00,
2013-02-06 01:15:00,38.0,31.7,29.66,North,9,3.5,3.5,78,0.00,CLR,,0.00,0.0,WeatherDisplay:10.37,2013-02-06 01:15:00,
2013-02-06 01:20:00,38.0,31.4,29.67,NNE,27,9.2,9.2,77,0.00,CLR,,0.00,0.0,WeatherDisplay:10.37,2013-02-06 01:20:00,
2013-02-06 01:25:00,38.0,31.4,29.67,NNE,13,3.5,3.5,77,0.00,CLR,,0.00,0.0,WeatherDisplay:10.37,2013-02-06 01:25:00,
2013-02-06 01:30:00,38.0,31.4,29.67,NNE,30,3.5,3.5,77,0.00,CLR,,0.00,0.0,WeatherDisplay:10.37,2013-02-06 01:30:00,
2013-02-06 01:35:00,38.0,31.4,29.68,NNW,332,3.5,3.5,77,0.00,CLR,,0.00,0.0,WeatherDisplay:10.37,2013-02-06 01:35:00,
2013-02-06 01:40:00,37.9,31.3,29.68,NW,308,3.5,3.5,77,0.00,CLR,,0.00,0.0,WeatherDisplay:10.37,2013-02-06 01:40:00,
2013-02-06 01:45:00,37.9,31.0,29.68,NNW,333,3.5,3.5,76,0.00,CLR,,0.00,0.0,WeatherDisplay:10.37,2013-02-06 01:45:00,
2013-02-06 01:50:00,37.8,30.9,29.69,NNW,334,3.0,3.0,76,0.00,CLR,,0.00,0.0,WeatherDisplay:10.37,2013-02-06 01:50:00,
2013-02-06 01:55:00,37.8,30.6,29.69,NNW,331,3.5,3.5,75,0.00,CLR,,0.00,0.0,WeatherDisplay:10.37,2013-02-06 01:55:00,
2013-02-06 02:00:00,37.7,30.8,29.70,NNW,335,2.3,0.0,76,0.00,CLR,,0.00,0.0,WeatherDisplay:10.37,2013-02-06 02:00:00,
2013-02-06 02:05:00,37.7,30.8,29.70,NNW,335,3.5,3.5,76,0.00,CLR,,0.00,0.0,WeatherDisplay:10.37,2013-02-06 02:05:00,
2013-02-06 02:10:00,37.7,30.8,29.70,NNE,19,4.6,4.6,76,0.00,CLR,,0.00,0.0,WeatherDisplay:10.37,2013-02-06 02:10:00,
2013-02-06 02:15:00,37.6,30.7,29.71,NNW,348,4.6,4.6,76,0.00,CLR,,0.00,0.0,WeatherDisplay:10.37,2013-02-06 02:15:00,
2013-02-06 02:20:00,37.6,30.4,29.72,North,350,3.5,3.5,75,0.00,CLR,,0.00,0.0,WeatherDisplay:10.37,2013-02-06 02:20:00,
2013-02-06 02:25:00,37.5,30.6,29.72,North,350,2.0,2.0,76,0.00,CLR,,0.00,0.0,WeatherDisplay:10.37,2013-02-06 02:25:00,
2013-02-06 02:30:00,37.4,30.2,29.72,North,350,2.3,2.3,75,0.00,CLR,,0.00,0.0,WeatherDisplay:10.37,2013-02-06 02:30:00,
2013-02-06 02:35:00,37.4,30.2,29.73,NNW,348,3.5,3.5,75,0.00,CLR,,0.00,0.0,WeatherDisplay:10.37,2013-02-06 02:35:00,
2013-02-06 02:40:00,37.2,30.0,29.73,NNW,348,2.3,2.3,75,0.00,CLR,,0.00,0.0,WeatherDisplay:10.37,2013-02-06 02:40:00,
2013-02-06 02:45:00,37.2,30.0,29.74,NNW,346,5.8,5.8,75,0.00,CLR,,0.00,0.0,WeatherDisplay:10.37,2013-02-06 02:45:00,
2013-02-06 02:50:00,37.1,29.9,29.75,NNW,347,2.3,2.3,75,0.00,CLR,,0.00,0.0,WeatherDisplay:10.37,2013-02-06 02:50:00,
2013-02-06 02:55:00,37.0,29.8,29.75,NNE,32,5.0,5.0,75,0.00,CLR,,0.00,0.0,WeatherDisplay:10.37,2013-02-06 02:55:00,
2013-02-06 03:00:00,36.9,29.4,29.75,SSE,160,3.5,3.5,74,0.00,CLR,,0.00,0.0,WeatherDisplay:10.37,2013-02-06 03:00:00,
2013-02-06 03:05:00,36.9,29.7,29.75,SSE,160,1.0,0.0,75,0.00,CLR,,0.00,0.0,WeatherDisplay:10.37,2013-02-06 03:05:00,
2013-02-06 03:10:00,36.7,29.5,29.76,SSE,160,0.0,0.0,75,0.00,CLR,,0.00,0.0,WeatherDisplay:10.37,2013-02-06 03:10:00,
2013-02-06 03:15:00,36.6,30.1,29.76,SSE,161,2.3,2.3,77,0.00,CLR,,0.00,0.0,WeatherDisplay:10.37,2013-02-06 03:15:00,
2013-02-06 03:20:00,36.4,29.9,29.76,SE,145,0.0,0.0,77,0.00,CLR,,0.00,0.0,WeatherDisplay:10.37,2013-02-06 03:20:00,
2013-02-06 03:25:00,36.2,29.7,29.76,SE,146,0.0,0.0,77,0.00,CLR,,0.00,0.0,WeatherDisplay:10.37,2013-02-06 03:25:00,
2013-02-06 03:30:00,36.1,29.6,29.76,SE,140,2.3,2.3,77,0.00,CLR,,0.00,0.0,WeatherDisplay:10.37,2013-02-06 03:30:00,
2013-02-06 03:35:00,35.8,29.3,29.76,NNW,348,3.5,3.5,77,0.00,CLR,,0.00,0.0,WeatherDisplay:10.37,2013-02-06 03:35:00,
2013-02-06 03:40:00,35.7,29.5,29.77,NNE,29,5.0,5.0,78,0.00,CLR,,0.00,0.0,WeatherDisplay:10.37,2013-02-06 03:40:00,
2013-02-06 03:45:00,35.6,29.4,29.77,NNE,28,2.3,2.3,78,0.00,CLR,,0.00,0.0,WeatherDisplay:10.37,2013-02-06 03:45:00,
2013-02-06 03:50:00,35.6,29.4,29.77,NNW,329,3.0,3.0,78,0.00,CLR,,0.00,0.0,WeatherDisplay:10.37,2013-02-06 03:50:00,
2013-02-06 03:55:00,35.5,29.3,29.77,NNW,330,1.0,1.0,78,0.00,CLR,,0.00,0.0,WeatherDisplay:10.37,2013-02-06 03:55:00,
2013-02-06 04:00:00,35.4,29.5,29.77,NNW,336,3.5,3.5,79,0.00,CLR,,0.00,0.0,WeatherDisplay:10.37,2013-02-06 04:00:00,
2013-02-06 04:05:00,35.3,29.1,29.77,North,349,3.5,3.5,78,0.00,CLR,,0.00,0.0,WeatherDisplay:10.37,2013-02-06 04:05:00,
2013-02-06 04:10:00,35.2,29.3,29.78,North,350,0.0,0.0,79,0.00,CLR,,0.00,0.0,WeatherDisplay:10.37,2013-02-06 04:10:00,
2013-02-06 04:15:00,35.1,28.9,29.78,WSW,244,2.3,2.3,78,0.00,CLR,,0.00,0.0,WeatherDisplay:10.37,2013-02-06 04:15:00,
2013-02-06 04:20:00,35.0,28.8,29.78,NW,315,6.9,6.9,78,0.00,CLR,,0.00,0.0,WeatherDisplay:10.37,2013-02-06 04:20:00,
2013-02-06 04:25:00,34.9,28.7,29.79,WNW,296,3.5,3.5,78,0.00,CLR,,0.00,0.0,WeatherDisplay:10.37,2013-02-06 04:25:00,
2013-02-06 04:30:00,34.8,28.6,29.79,West,261,11.5,11.5,78,0.00,CLR,,0.00,0.0,WeatherDisplay:10.37,2013-02-06 04:30:00,
2013-02-06 04:35:00,34.8,28.6,29.79,NNW,344,3.5,3.5,78,0.00,CLR,,0.00,0.0,WeatherDisplay:10.37,2013-02-06 04:35:00,
2013-02-06 04:40:00,34.8,28.6,29.79,North,355,3.5,3.5,78,0.00,CLR,,0.00,0.0,WeatherDisplay:10.37,2013-02-06 04:40:00,
2013-02-06 04:45:00,34.8,28.6,29.80,NNW,348,3.5,3.5,78,0.00,CLR,,0.00,0.0,WeatherDisplay:10.37,2013-02-06 04:45:00,
2013-02-06 04:50:00,34.8,28.6,29.80,NNW,340,5.0,5.0,78,0.00,CLR,,0.00,0.0,WeatherDisplay:10.37,2013-02-06 04:50:00,
2013-02-06 04:55:00,34.8,28.6,29.80,NW,321,3.5,3.5,78,0.00,CLR,,0.00,0.0,WeatherDisplay:10.37,2013-02-06 04:55:00,
2013-02-06 05:00:00,34.7,28.5,29.80,NNW,329,3.5,3.5,78,0.00,CLR,,0.00,0.0,WeatherDisplay:10.37,2013-02-06 05:00:00,
2013-02-06 05:05:00,34.7,28.5,29.80,North,9,5.8,5.8,78,0.00,CLR,,0.00,0.0,WeatherDisplay:10.37,2013-02-06 05:05:00,
2013-02-06 05:10:00,34.7,28.5,29.81,NNW,329,10.4,10.4,78,0.00,CLR,,0.00,0.0,WeatherDisplay:10.37,2013-02-06 05:10:00,
2013-02-06 05:15:00,34.7,28.5,29.81,NNW,345,3.5,3.5,78,0.00,CLR,,0.00,0.0,WeatherDisplay:10.37,2013-02-06 05:15:00,
2013-02-06 05:20:00,34.7,28.5,29.82,NNW,333,4.0,4.0,78,0.00,CLR,,0.00,0.0,WeatherDisplay:10.37,2013-02-06 05:20:00,
2013-02-06 05:25:00,34.6,28.8,29.83,NNW,333,1.1,1.1,79,0.00,CLR,,0.00,0.0,WeatherDisplay:10.37,2013-02-06 05:25:00,
2013-02-06 05:30:00,34.5,28.7,29.83,West,280,1.1,1.1,79,0.00,CLR,,0.00,0.0,WeatherDisplay:10.37,2013-02-06 05:30:00,
2013-02-06 05:35:00,34.4,28.6,29.83,WNW,291,2.3,0.0,79,0.00,CLR,,0.00,0.0,WeatherDisplay:10.37,2013-02-06 05:35:00,
2013-02-06 05:40:00,34.2,28.7,29.83,WNW,292,3.5,3.5,80,0.00,CLR,,0.00,0.0,WeatherDisplay:10.37,2013-02-06 05:40:00,
2013-02-06 05:45:00,34.1,28.3,29.83,NW,326,4.6,4.6,79,0.00,CLR,,0.00,0.0,WeatherDisplay:10.37,2013-02-06 05:45:00,
2013-02-06 05:51:00,34.0,28.5,29.84,West,269,3.5,3.5,80,0.00,CLR,,0.00,0.0,WeatherDisplay:10.37,2013-02-06 05:51:00,
2013-02-06 05:56:00,33.8,28.3,29.84,West,280,2.3,0.0,80,0.00,CLR,,0.00,0.0,WeatherDisplay:10.37,2013-02-06 05:56:00,
2013-02-06 06:01:00,33.7,28.2,29.84,West,276,2.3,2.3,80,0.00,CLR,,0.00,0.0,WeatherDisplay:10.37,2013-02-06 06:01:00,
2013-02-06 06:06:00,33.6,28.1,29.84,WNW,284,5.0,0.0,80,0.00,CLR,,0.00,0.0,WeatherDisplay:10.37,2013-02-06 06:06:00,
2013-02-06 06:11:00,33.5,28.0,29.84,NW,307,3.5,3.5,80,0.00,CLR,,0.00,0.0,WeatherDisplay:10.37,2013-02-06 06:11:00,
2013-02-06 06:16:00,33.4,27.9,29.85,NW,312,4.6,4.6,80,0.00,CLR,,0.00,0.0,WeatherDisplay:10.37,2013-02-06 06:16:00,
2013-02-06 06:21:00,33.3,28.1,29.85,NW,309,3.5,3.5,81,0.00,CLR,,0.00,0.0,WeatherDisplay:10.37,2013-02-06 06:21:00,
2013-02-06 06:26:00,33.2,28.0,29.85,NW,313,0.0,0.0,81,0.00,CLR,,0.00,0.0,WeatherDisplay:10.37,2013-02-06 06:26:00,
2013-02-06 06:31:00,33.0,27.8,29.86,NW,317,4.6,4.6,81,0.00,CLR,,0.00,0.0,WeatherDisplay:10.37,2013-02-06 06:31:00,
2013-02-06 06:36:00,32.9,28.0,29.86,WNW,300,3.5,0.0,82,0.00,CLR,,0.00,0.0,WeatherDisplay:10.37,2013-02-06 06:36:00,
2013-02-06 06:41:00,32.7,27.5,29.87,WNW,301,1.1,1.1,81,0.00,CLR,,0.00,0.0,WeatherDisplay:10.37,2013-02-06 06:41:00,
2013-02-06 06:46:00,32.7,27.5,29.87,NNW,330,6.9,6.9,81,0.00,CLR,,0.00,0.0,WeatherDisplay:10.37,2013-02-06 06:46:00,
2013-02-06 06:51:00,32.7,27.8,29.87,NNW,331,1.1,1.1,82,0.00,CLR,,0.00,0.0,WeatherDisplay:10.37,2013-02-06 06:51:00,
2013-02-06 06:56:00,32.7,27.8,29.87,NW,325,0.0,0.1,82,0.00,CLR,,0.00,0.0,WeatherDisplay:10.37,2013-02-06 06:56:00,
2013-02-06 07:01:00,32.6,27.7,29.87,WNW,295,2.3,2.3,82,0.00,CLR,,0.00,0.0,WeatherDisplay:10.37,2013-02-06 07:01:00,
2013-02-06 07:06:00,32.5,27.6,29.88,WNW,296,0.0,0.5,82,0.00,CLR,,0.00,0.0,WeatherDisplay:10.37,2013-02-06 07:06:00,
2013-02-06 07:11:00,32.4,27.5,29.88,NW,313,0.0,0.0,82,0.00,CLR,,0.00,0.0,WeatherDisplay:10.37,2013-02-06 07:11:00,
2013-02-06 07:16:00,32.3,27.7,29.88,NW,313,2.3,2.3,83,0.00,CLR,,0.00,0.0,WeatherDisplay:10.37,2013-02-06 07:16:00,
2013-02-06 07:21:00,32.2,27.6,29.88,NW,313,0.0,0.0,83,0.00,CLR,,0.00,0.0,WeatherDisplay:10.37,2013-02-06 07:21:00,
2013-02-06 07:26:00,32.2,27.6,29.89,NW,317,2.3,2.3,83,0.00,CLR,,0.00,0.0,WeatherDisplay:10.37,2013-02-06 07:26:00,
2013-02-06 07:31:00,32.2,27.6,29.89,NW,317,1.1,0.0,83,0.00,OVC,,0.00,0.0,WeatherDisplay:10.37,2013-02-06 07:31:00,
2013-02-06 07:36:00,32.2,27.6,29.89,WSW,241,2.3,2.3,83,0.00,OVC,,0.00,0.0,WeatherDisplay:10.37,2013-02-06 07:36:00,
2013-02-06 07:41:00,32.3,27.7,29.89,WSW,242,2.3,2.3,83,0.00,OVC,,0.00,0.0,WeatherDisplay:10.37,2013-02-06 07:41:00,
2013-02-06 07:46:00,32.4,27.8,29.89,NW,315,5.0,5.0,83,0.00,OVC,,0.00,0.0,WeatherDisplay:10.37,2013-02-06 07:46:00,
2013-02-06 07:51:00,32.4,27.8,29.90,WNW,299,3.5,3.5,83,0.00,OVC,,0.00,0.0,WeatherDisplay:10.37,2013-02-06 07:51:00,
2013-02-06 07:56:00,32.5,27.6,29.90,NW,311,4.6,4.6,82,0.00,OVC,,0.00,0.0,WeatherDisplay:10.37,2013-02-06 07:56:00,
2013-02-06 08:01:00,32.6,27.7,29.90,West,261,5.8,5.8,82,0.00,OVC,,0.00,5.0,WeatherDisplay:10.37,2013-02-06 08:01:00,
2013-02-06 08:06:00,32.7,28.1,29.91,West,261,2.3,2.3,83,0.00,OVC,,0.00,7.0,WeatherDisplay:10.37,2013-02-06 08:06:00,
2013-02-06 08:11:00,32.7,28.1,29.91,NW,313,2.3,0.0,83,0.00,CLR,,0.00,7.0,WeatherDisplay:10.37,2013-02-06 08:11:00,
2013-02-06 08:16:00,32.7,28.1,29.91,NNW,327,3.5,0.0,83,0.00,FEW,,0.00,9.0,WeatherDisplay:10.37,2013-02-06 08:16:00,
2013-02-06 08:21:00,32.7,28.1,29.92,NNW,327,2.3,2.3,83,0.00,SCT,,0.00,11.0,WeatherDisplay:10.37,2013-02-06 08:21:00,
2013-02-06 08:26:00,32.7,28.1,29.92,NNE,13,12.7,12.7,83,0.00,BKN,,0.00,12.0,WeatherDisplay:10.37,2013-02-06 08:26:00,
2013-02-06 08:31:00,32.7,28.4,29.92,NNW,333,4.0,4.0,84,0.00,SCT,,0.00,19.0,WeatherDisplay:10.37,2013-02-06 08:31:00,
2013-02-06 08:36:00,32.7,28.4,29.92,NNW,332,4.6,4.6,84,0.00,SCT,,0.00,25.0,WeatherDisplay:10.37,2013-02-06 08:36:00,
2013-02-06 08:41:00,32.7,28.4,29.92,NNW,333,1.1,0.0,84,0.00,SCT,,0.00,30.0,WeatherDisplay:10.37,2013-02-06 08:41:00,
2013-02-06 08:46:00,32.7,28.4,29.93,WNW,294,0.0,0.0,84,0.00,FEW,,0.00,39.0,WeatherDisplay:10.37,2013-02-06 08:46:00,
2013-02-06 08:51:00,32.7,28.4,29.93,North,351,1.1,1.1,84,0.00,FEW,,0.00,44.0,WeatherDisplay:10.37,2013-02-06 08:51:00,
2013-02-06 08:56:00,32.7,28.7,29.93,NW,322,3.5,3.5,85,0.00,SCT,,0.00,49.0,WeatherDisplay:10.37,2013-02-06 08:56:00,
2013-02-06 09:01:00,32.7,28.7,29.93,NW,319,0.0,0.0,85,0.00,FEW,,0.00,32.0,WeatherDisplay:10.37,2013-02-06 09:01:00,
2013-02-06 09:06:00,32.7,28.7,29.93,NW,319,1.1,1.1,85,0.00,SCT,,0.00,23.0,WeatherDisplay:10.37,2013-02-06 09:06:00,
2013-02-06 09:11:00,32.8,28.5,29.93,WNW,300,4.6,4.6,84,0.00,BKN,,0.00,28.0,WeatherDisplay:10.37,2013-02-06 09:11:00,
2013-02-06 09:16:00,32.8,28.5,29.93,WNW,300,1.1,1.1,84,0.00,BKN,,0.00,47.0,WeatherDisplay:10.37,2013-02-06 09:16:00,
2013-02-06 09:21:00,32.9,28.6,29.93,NW,318,3.5,3.5,84,0.00,SCT,,0.00,84.0,WeatherDisplay:10.37,2013-02-06 09:21:00,
2013-02-06 09:26:00,33.1,28.8,29.93,NNW,333,2.0,2.0,84,0.00,SCT,,0.00,97.0,WeatherDisplay:10.37,2013-02-06 09:26:00,
2013-02-06 09:31:00,33.3,29.0,29.94,WNW,303,3.5,3.5,84,0.00,FEW,,0.00,105.0,WeatherDisplay:10.37,2013-02-06 09:31:00,
2013-02-06 09:36:00,33.5,29.2,29.94,NW,307,3.5,3.5,84,0.00,CLR,,0.00,116.0,WeatherDisplay:10.37,2013-02-06 09:36:00,
2013-02-06 09:41:00,33.7,29.1,29.95,WNW,300,3.5,3.5,83,0.00,CLR,,0.00,123.0,WeatherDisplay:10.37,2013-02-06 09:41:00,
2013-02-06 09:46:00,34.0,29.1,29.95,NW,313,2.3,2.3,82,0.00,CLR,,0.00,132.0,WeatherDisplay:10.37,2013-02-06 09:46:00,
2013-02-06 09:51:00,34.2,29.3,29.95,West,272,10.4,10.4,82,0.00,CLR,,0.00,141.0,WeatherDisplay:10.37,2013-02-06 09:51:00,
2013-02-06 09:56:00,34.5,29.3,29.96,NW,304,3.5,3.5,81,0.00,FEW,,0.00,42.0,WeatherDisplay:10.37,2013-02-06 09:56:00,
2013-02-06 10:01:00,34.7,29.5,29.96,NNW,333,0.0,0.0,81,0.00,SCT,,0.00,40.0,WeatherDisplay:10.37,2013-02-06 10:01:00,
2013-02-06 10:06:00,34.9,29.4,29.97,SW,236,3.5,3.5,80,0.00,SCT,,0.00,165.0,WeatherDisplay:10.37,2013-02-06 10:06:00,
2013-02-06 10:11:00,35.1,29.6,29.97,WNW,302,8.1,8.1,80,0.00,CLR,,0.00,171.0,WeatherDisplay:10.37,2013-02-06 10:11:00,
2013-02-06 10:16:00,35.3,29.7,29.97,NNW,336,3.5,3.5,80,0.00,CLR,,0.00,185.0,WeatherDisplay:10.37,2013-02-06 10:16:00,
2013-02-06 10:21:00,35.5,29.9,29.97,NNW,341,3.5,3.5,80,0.00,CLR,,0.00,197.0,WeatherDisplay:10.37,2013-02-06 10:21:00,
2013-02-06 10:26:00,35.7,29.8,29.97,NNW,345,9.2,9.2,79,0.00,CLR,,0.00,162.0,WeatherDisplay:10.37,2013-02-06 10:26:00,
2013-02-06 10:31:00,36.0,29.8,29.98,North,10,3.5,3.5,78,0.00,CLR,,0.00,202.0,WeatherDisplay:10.37,2013-02-06 10:31:00,
2013-02-06 10:36:00,36.2,30.0,29.97,NW,319,5.8,5.8,78,0.00,CLR,,0.00,216.0,WeatherDisplay:10.37,2013-02-06 10:36:00,
2013-02-06 10:41:00,36.4,29.9,29.98,NNW,341,10.4,10.4,77,0.00,CLR,,0.00,221.0,WeatherDisplay:10.37,2013-02-06 10:41:00,
2013-02-06 10:46:00,36.7,29.8,29.98,NW,314,3.5,3.5,76,0.00,CLR,,0.00,221.0,WeatherDisplay:10.37,2013-02-06 10:46:00,
2013-02-06 10:51:00,36.9,29.7,29.99,NW,314,3.5,3.5,75,0.00,CLR,,0.00,229.0,WeatherDisplay:10.37,2013-02-06 10:51:00,
2013-02-06 10:56:00,37.1,29.6,29.99,NNE,15,2.3,2.3,74,0.00,CLR,,0.00,236.0,WeatherDisplay:10.37,2013-02-06 10:56:00,
2013-02-06 11:01:00,37.4,29.5,29.99,WSW,242,3.5,3.5,73,0.00,CLR,,0.00,162.0,WeatherDisplay:10.37,2013-02-06 11:01:00,
2013-02-06 11:07:00,37.6,29.4,29.99,NNW,338,5.8,5.8,72,0.00,CLR,,0.00,250.0,WeatherDisplay:10.37,2013-02-06 11:07:00,
2013-02-06 11:12:00,37.8,29.6,30.00,NW,320,3.5,3.5,72,0.00,CLR,,0.00,243.0,WeatherDisplay:10.37,2013-02-06 11:12:00,
2013-02-06 11:17:00,38.1,29.9,29.99,NNW,338,3.0,3.0,72,0.00,CLR,,0.00,248.0,WeatherDisplay:10.37,2013-02-06 11:17:00,
2013-02-06 11:22:00,38.3,29.7,30.00,NNW,332,4.6,4.6,71,0.00,CLR,,0.00,248.0,WeatherDisplay:10.37,2013-02-06 11:22:00,
2013-02-06 11:27:00,38.5,29.9,29.99,NNW,339,10.4,10.4,71,0.00,CLR,,0.00,255.0,WeatherDisplay:10.37,2013-02-06 11:27:00,
2013-02-06 11:32:00,38.8,29.8,30.00,NNW,330,3.5,3.5,70,0.00,CLR,,0.00,60.0,WeatherDisplay:10.37,2013-02-06 11:32:00,
2013-02-06 11:37:00,39.0,30.0,30.00,NNW,331,3.5,3.5,70,0.00,CLR,,0.00,276.0,WeatherDisplay:10.37,2013-02-06 11:37:00,
2013-02-06 11:42:00,39.2,30.2,30.00,NNW,332,3.5,3.5,70,0.00,CLR,,0.00,149.0,WeatherDisplay:10.37,2013-02-06 11:42:00,
2013-02-06 11:47:00,39.4,30.1,30.00,NNE,15,6.9,6.9,69,0.00,CLR,,0.00,123.0,WeatherDisplay:10.37,2013-02-06 11:47:00,
2013-02-06 11:52:00,39.5,30.2,30.00,NNE,24,5.8,5.8,69,0.00,FEW,,0.00,70.0,WeatherDisplay:10.37,2013-02-06 11:52:00,
2013-02-06 11:57:00,39.5,30.2,30.00,North,355,3.5,3.5,69,0.00,SCT,,0.00,69.0,WeatherDisplay:10.37,2013-02-06 11:57:00,
2013-02-06 12:02:00,39.4,30.1,30.01,NNE,28,3.0,3.0,69,0.00,BKN,,0.00,211.0,WeatherDisplay:10.37,2013-02-06 12:02:00,
2013-02-06 12:07:00,39.4,30.1,30.01,NNW,338,6.9,6.9,69,0.00,SCT,,0.00,236.0,WeatherDisplay:10.37,2013-02-06 12:07:00,
2013-02-06 12:12:00,39.5,30.2,30.01,NNW,337,4.6,4.6,69,0.00,FEW,,0.00,120.0,WeatherDisplay:10.37,2013-02-06 12:12:00,
2013-02-06 12:17:00,39.4,30.1,30.01,North,350,3.5,3.5,69,0.00,SCT,,0.00,56.0,WeatherDisplay:10.37,2013-02-06 12:17:00,
2013-02-06 12:22:00,39.4,30.4,30.02,NW,304,3.5,3.5,70,0.00,SCT,,0.00,283.0,WeatherDisplay:10.37,2013-02-06 12:22:00,
2013-02-06 12:27:00,39.4,30.8,30.01,NE,49,3.5,3.5,71,0.00,CLR,,0.00,285.0,WeatherDisplay:10.37,2013-02-06 12:27:00,
2013-02-06 12:32:00,39.6,30.6,30.02,NNW,343,4.0,4.0,70,0.00,CLR,,0.00,253.0,WeatherDisplay:10.37,2013-02-06 12:32:00,
2013-02-06 12:37:00,39.7,30.7,30.02,NNW,327,4.6,4.6,70,0.00,CLR,,0.00,218.0,WeatherDisplay:10.37,2013-02-06 12:37:00,
2013-02-06 12:42:00,39.8,30.5,30.02,NE,56,3.5,3.5,69,0.00,FEW,,0.00,62.0,WeatherDisplay:10.37,2013-02-06 12:42:00,
2013-02-06 12:47:00,39.8,30.1,30.02,NNW,346,8.1,8.1,68,0.00,SCT,,0.00,199.0,WeatherDisplay:10.37,2013-02-06 12:47:00,
2013-02-06 12:52:00,39.8,30.1,30.02,NNW,340,3.5,3.5,68,0.00,SCT,,0.00,123.0,WeatherDisplay:10.37,2013-02-06 12:52:00,
2013-02-06 12:57:00,39.7,30.4,30.02,NNW,339,3.5,3.5,69,0.00,SCT,,0.00,309.0,WeatherDisplay:10.37,2013-02-06 12:57:00,
2013-02-06 13:02:00,39.7,30.7,30.02,NW,320,8.1,8.1,70,0.00,SCT,,0.00,74.0,WeatherDisplay:10.37,2013-02-06 13:02:00,
2013-02-06 13:07:00,39.7,30.0,30.03,North,10,9.2,9.2,68,0.00,SCT,,0.00,70.0,WeatherDisplay:10.37,2013-02-06 13:07:00,
2013-02-06 13:12:00,39.6,29.9,30.02,NNW,328,4.6,4.6,68,0.00,SCT,,0.00,257.0,WeatherDisplay:10.37,2013-02-06 13:12:00,
2013-02-06 13:17:00,39.5,30.2,30.03,NNW,340,4.6,4.6,69,0.00,CLR,,0.00,257.0,WeatherDisplay:10.37,2013-02-06 13:17:00,
2013-02-06 13:22:00,39.6,30.3,30.03,North,355,3.5,3.5,69,0.00,CLR,,0.00,251.0,WeatherDisplay:10.37,2013-02-06 13:22:00,
2013-02-06 13:27:00,39.7,30.0,30.03,NNW,344,3.5,3.5,68,0.00,CLR,,0.00,251.0,WeatherDisplay:10.37,2013-02-06 13:27:00,
2013-02-06 13:32:00,39.8,29.7,30.03,NW,326,4.6,4.6,67,0.00,CLR,,0.00,255.0,WeatherDisplay:10.37,2013-02-06 13:32:00,
2013-02-06 13:37:00,39.9,29.8,30.03,East,79,4.6,4.6,67,0.00,CLR,,0.00,241.0,WeatherDisplay:10.37,2013-02-06 13:37:00,
2013-02-06 13:42:00,40.0,29.9,30.03,NNW,345,8.1,8.1,67,0.00,CLR,,0.00,72.0,WeatherDisplay:10.37,2013-02-06 13:42:00,
2013-02-06 13:47:00,39.9,29.5,30.03,NNW,337,2.3,2.3,66,0.00,SCT,,0.00,54.0,WeatherDisplay:10.37,2013-02-06 13:47:00,
2013-02-06 13:52:00,39.8,29.0,30.03,NNW,339,3.5,3.5,65,0.00,BKN,,0.00,47.0,WeatherDisplay:10.37,2013-02-06 13:52:00,
2013-02-06 13:57:00,39.6,28.8,30.03,NNE,12,3.5,3.5,65,0.00,BKN,,0.00,69.0,WeatherDisplay:10.37,2013-02-06 13:57:00,
2013-02-06 14:02:00,39.4,29.0,30.03,North,349,3.5,3.5,66,0.00,BKN,,0.00,135.0,WeatherDisplay:10.37,2013-02-06 14:02:00,
2013-02-06 14:07:00,39.3,28.9,30.04,North,360,10.0,10.0,66,0.00,SCT,,0.00,209.0,WeatherDisplay:10.37,2013-02-06 14:07:00,
2013-02-06 14:12:00,39.2,29.2,30.03,NNW,338,2.3,2.3,67,0.00,SCT,,0.00,53.0,WeatherDisplay:10.37,2013-02-06 14:12:00,
2013-02-06 14:17:00,39.1,29.1,30.03,NNW,338,11.5,11.5,67,0.00,BKN,,0.00,53.0,WeatherDisplay:10.37,2013-02-06 14:17:00,
2013-02-06 14:22:00,39.0,29.0,30.04,NNW,347,2.3,2.3,67,0.00,SCT,,0.00,188.0,WeatherDisplay:10.37,2013-02-06 14:22:00,
2013-02-06 14:27:00,38.9,29.2,30.04,NNW,339,5.0,5.0,68,0.00,FEW,,0.00,183.0,WeatherDisplay:10.37,2013-02-06 14:27:00,
2013-02-06 14:32:00,38.9,29.2,30.04,WSW,240,3.5,3.5,68,0.00,CLR,,0.00,172.0,WeatherDisplay:10.37,2013-02-06 14:32:00,
2013-02-06 14:37:00,39.0,29.0,30.03,North,355,3.5,3.5,67,0.00,FEW,,0.00,144.0,WeatherDisplay:10.37,2013-02-06 14:37:00,
2013-02-06 14:42:00,39.0,29.0,30.03,NW,321,4.0,4.0,67,0.00,CLR,,0.00,148.0,WeatherDisplay:10.37,2013-02-06 14:42:00,
2013-02-06 14:47:00,39.0,28.6,30.03,WNW,298,3.5,3.5,66,0.00,CLR,,0.00,142.0,WeatherDisplay:10.37,2013-02-06 14:47:00,
2013-02-06 14:52:00,39.0,29.0,30.04,NNW,335,3.5,3.5,67,0.00,FEW,,0.00,134.0,WeatherDisplay:10.37,2013-02-06 14:52:00,
2013-02-06 14:57:00,39.0,29.0,30.04,WNW,290,3.5,3.5,67,0.00,FEW,,0.00,125.0,WeatherDisplay:10.37,2013-02-06 14:57:00,
2013-02-06 15:02:00,39.0,29.0,30.04,WNW,286,3.5,3.5,67,0.00,FEW,,0.00,118.0,WeatherDisplay:10.37,2013-02-06 15:02:00,
2013-02-06 15:07:00,38.9,28.9,30.04,NNW,348,3.5,3.5,67,0.00,FEW,,0.00,109.0,WeatherDisplay:10.37,2013-02-06 15:07:00,
2013-02-06 15:12:00,38.9,29.2,30.05,North,5,6.9,6.9,68,0.00,FEW,,0.00,102.0,WeatherDisplay:10.37,2013-02-06 15:12:00,
2013-02-06 15:17:00,38.8,28.8,30.05,NW,325,4.6,4.6,67,0.00,FEW,,0.00,91.0,WeatherDisplay:10.37,2013-02-06 15:17:00,
2013-02-06 15:22:00,38.7,29.0,30.05,NE,38,3.5,3.5,68,0.00,SCT,,0.00,86.0,WeatherDisplay:10.37,2013-02-06 15:22:00,
2013-02-06 15:27:00,38.6,28.9,30.05,West,280,2.3,2.3,68,0.00,SCT,,0.00,76.0,WeatherDisplay:10.37,2013-02-06 15:27:00,
2013-02-06 15:32:00,38.5,28.9,30.05,West,281,2.3,2.3,68,0.00,SCT,,0.00,54.0,WeatherDisplay:10.37,2013-02-06 15:32:00,
2013-02-06 15:37:00,38.4,29.1,30.06,West,281,3.5,3.5,69,0.00,SCT,,0.00,26.0,WeatherDisplay:10.37,2013-02-06 15:37:00,
2013-02-06 15:42:00,38.2,28.9,30.06,WNW,299,3.5,3.5,69,0.00,BKN,,0.00,23.0,WeatherDisplay:10.37,2013-02-06 15:42:00,
2013-02-06 15:47:00,38.0,29.1,30.06,NNW,339,0.0,0.8,70,0.00,BKN,,0.00,23.0,WeatherDisplay:10.37,2013-02-06 15:47:00,
2013-02-06 15:52:00,37.8,28.9,30.06,NNW,331,3.5,3.5,70,0.00,BKN,,0.00,30.0,WeatherDisplay:10.37,2013-02-06 15:52:00,
2013-02-06 15:57:00,37.6,28.7,30.06,NNW,332,2.3,2.3,70,0.00,BKN,,0.00,23.0,WeatherDisplay:10.37,2013-02-06 15:57:00,
2013-02-06 16:02:00,37.5,28.9,30.07,NNW,332,2.3,2.3,71,0.00,BKN,,0.00,18.0,WeatherDisplay:10.37,2013-02-06 16:02:00,
2013-02-06 16:07:00,37.3,28.8,30.07,NNW,329,3.5,3.5,71,0.00,BKN,,0.00,23.0,WeatherDisplay:10.37,2013-02-06 16:07:00,
2013-02-06 16:12:00,37.1,28.9,30.07,NNW,329,3.5,3.5,72,0.00,BKN,,0.00,21.0,WeatherDisplay:10.37,2013-02-06 16:12:00,
2013-02-06 16:18:00,36.9,28.7,30.07,NNW,329,0.0,0.0,72,0.00,BKN,,0.00,19.0,WeatherDisplay:10.37,2013-02-06 16:18:00,
2013-02-06 16:23:00,36.8,28.6,30.07,WNW,302,2.3,0.0,72,0.00,BKN,,0.00,16.0,WeatherDisplay:10.37,2013-02-06 16:23:00,
2013-02-06 16:28:00,36.6,28.8,30.07,WNW,303,1.1,1.1,73,0.00,BKN,,0.00,19.0,WeatherDisplay:10.37,2013-02-06 16:28:00,
2013-02-06 16:33:00,36.4,28.6,30.08,WNW,303,2.3,0.0,73,0.00,BKN,,0.00,16.0,WeatherDisplay:10.37,2013-02-06 16:33:00,
2013-02-06 16:38:00,36.2,28.4,30.08,WNW,303,2.3,0.0,73,0.00,BKN,,0.00,12.0,WeatherDisplay:10.37,2013-02-06 16:38:00,
2013-02-06 16:43:00,36.0,28.2,30.08,NW,304,1.1,1.1,73,0.00,BKN,,0.00,7.0,WeatherDisplay:10.37,2013-02-06 16:43:00,
2013-02-06 16:48:00,35.9,28.4,30.08,NNW,328,1.1,1.8,74,0.00,BKN,,0.00,5.0,WeatherDisplay:10.37,2013-02-06 16:48:00,
2013-02-06 16:53:00,35.7,28.2,30.08,NW,319,2.3,0.0,74,0.00,BKN,,0.00,5.0,WeatherDisplay:10.37,2013-02-06 16:53:00,
2013-02-06 16:58:00,35.7,28.6,30.08,WNW,292,3.5,0.0,75,0.00,OVC,,0.00,0.0,WeatherDisplay:10.37,2013-02-06 16:58:00,
2013-02-06 17:03:00,35.6,28.5,30.08,NNW,330,1.1,0.0,75,0.00,CLR,,0.00,0.0,WeatherDisplay:10.37,2013-02-06 17:03:00,
2013-02-06 17:08:00,35.5,28.4,30.09,NW,315,3.0,3.0,75,0.00,CLR,,0.00,0.0,WeatherDisplay:10.37,2013-02-06 17:08:00,
2013-02-06 17:13:00,35.5,28.7,30.08,NW,306,4.6,4.6,76,0.00,CLR,,0.00,0.0,WeatherDisplay:10.37,2013-02-06 17:13:00,
2013-02-06 17:18:00,35.5,28.4,30.08,NNW,331,1.1,1.9,75,0.00,CLR,,0.00,0.0,WeatherDisplay:10.37,2013-02-06 17:18:00,
2013-02-06 17:23:00,35.4,28.3,30.08,NW,311,3.5,3.5,75,0.00,CLR,,0.00,0.0,WeatherDisplay:10.37,2013-02-06 17:23:00,
2013-02-06 17:28:00,35.4,28.3,30.08,NW,311,1.1,0.0,75,0.00,CLR,,0.00,0.0,WeatherDisplay:10.37,2013-02-06 17:28:00,
2013-02-06 17:33:00,35.4,28.3,30.08,NW,310,1.1,1.1,75,0.00,CLR,,0.00,0.0,WeatherDisplay:10.37,2013-02-06 17:33:00,
2013-02-06 17:38:00,35.3,28.2,30.08,WNW,299,0.0,0.0,75,0.00,CLR,,0.00,0.0,WeatherDisplay:10.37,2013-02-06 17:38:00,
2013-02-06 17:43:00,35.2,27.7,30.08,WSW,252,3.5,3.5,74,0.00,CLR,,0.00,0.0,WeatherDisplay:10.37,2013-02-06 17:43:00,
2013-02-06 17:48:00,35.1,27.6,30.08,SSW,207,6.0,6.0,74,0.00,CLR,,0.00,0.0,WeatherDisplay:10.37,2013-02-06 17:48:00,
2013-02-06 17:53:00,35.1,28.0,30.08,SSW,207,0.0,0.0,75,0.00,CLR,,0.00,0.0,WeatherDisplay:10.37,2013-02-06 17:53:00,
2013-02-06 17:58:00,35.1,28.0,30.08,SSW,208,3.5,3.5,75,0.00,CLR,,0.00,0.0,WeatherDisplay:10.37,2013-02-06 17:58:00,
2013-02-06 18:03:00,35.1,28.0,30.08,SSW,212,5.0,5.0,75,0.00,CLR,,0.00,0.0,WeatherDisplay:10.37,2013-02-06 18:03:00,
2013-02-06 18:08:00,35.2,28.1,30.09,SW,229,5.8,5.8,75,0.00,CLR,,0.00,0.0,WeatherDisplay:10.37,2013-02-06 18:08:00,
2013-02-06 18:13:00,35.4,27.9,30.09,SW,234,3.5,3.5,74,0.00,CLR,,0.00,0.0,WeatherDisplay:10.37,2013-02-06 18:13:00,
2013-02-06 18:18:00,35.4,27.9,30.09,SW,235,4.6,4.6,74,0.00,CLR,,0.00,0.0,WeatherDisplay:10.37,2013-02-06 18:18:00,
2013-02-06 18:23:00,35.5,28.0,30.09,SW,224,11.5,11.5,74,0.00,CLR,,0.00,0.0,WeatherDisplay:10.37,2013-02-06 18:23:00,
2013-02-06 18:28:00,35.7,27.9,30.09,SW,226,4.6,4.6,73,0.00,CLR,,0.00,0.0,WeatherDisplay:10.37,2013-02-06 18:28:00,
2013-02-06 18:33:00,35.9,28.1,30.09,SW,221,11.0,11.0,73,0.00,CLR,,0.00,0.0,WeatherDisplay:10.37,2013-02-06 18:33:00,
2013-02-06 18:38:00,36.1,27.9,30.09,SW,227,12.7,12.7,72,0.00,CLR,,0.00,0.0,WeatherDisplay:10.37,2013-02-06 18:38:00,
2013-02-06 18:43:00,36.4,27.9,30.09,SW,229,12.7,12.7,71,0.00,CLR,,0.00,0.0,WeatherDisplay:10.37,2013-02-06 18:43:00,
2013-02-06 18:48:00,36.6,28.1,30.10,SW,236,12.7,12.7,71,0.00,CLR,,0.00,0.0,WeatherDisplay:10.37,2013-02-06 18:48:00,
2013-02-06 18:53:00,36.8,28.3,30.10,SW,236,10.0,10.0,71,0.00,CLR,,0.00,0.0,WeatherDisplay:10.37,2013-02-06 18:53:00,
2013-02-06 18:58:00,36.9,28.0,30.10,SW,225,13.8,13.8,70,0.00,CLR,,0.00,0.0,WeatherDisplay:10.37,2013-02-06 18:58:00,
2013-02-06 19:03:00,37.1,28.2,30.10,SW,229,8.1,8.1,70,0.00,CLR,,0.00,0.0,WeatherDisplay:10.37,2013-02-06 19:03:00,
2013-02-06 19:08:00,37.1,27.9,30.10,SW,236,16.1,16.1,69,0.00,CLR,,0.00,0.0,WeatherDisplay:10.37,2013-02-06 19:08:00,
2013-02-06 19:13:00,37.2,28.0,30.10,WSW,246,11.0,11.0,69,0.00,CLR,,0.00,0.0,WeatherDisplay:10.37,2013-02-06 19:13:00,
2013-02-06 19:18:00,37.2,28.3,30.10,WSW,244,6.9,6.9,70,0.00,CLR,,0.00,0.0,WeatherDisplay:10.37,2013-02-06 19:18:00,
2013-02-06 19:23:00,37.2,28.7,30.11,WSW,237,2.3,2.3,71,0.00,CLR,,0.00,0.0,WeatherDisplay:10.37,2013-02-06 19:23:00,
2013-02-06 19:28:00,37.1,28.6,30.11,WSW,237,3.5,3.5,71,0.00,CLR,,0.00,0.0,WeatherDisplay:10.37,2013-02-06 19:28:00,
2013-02-06 19:33:00,36.9,28.4,30.11,SW,232,10.4,10.4,71,0.00,CLR,,0.00,0.0,WeatherDisplay:10.37,2013-02-06 19:33:00,
2013-02-06 19:39:00,36.8,28.3,30.11,SW,227,5.0,5.0,71,0.00,CLR,,0.00,0.0,WeatherDisplay:10.37,2013-02-06 19:39:00,
2013-02-06 19:44:00,36.8,28.3,30.11,SW,234,3.5,3.5,71,0.00,CLR,,0.00,0.0,WeatherDisplay:10.37,2013-02-06 19:44:00,
2013-02-06 19:48:00,36.7,28.5,30.11,SW,234,2.3,2.3,72,0.00,CLR,,0.00,0.0,WeatherDisplay:10.37,2013-02-06 19:48:00,
2013-02-06 19:53:00,36.6,28.4,30.11,SW,234,3.0,3.0,72,0.00,CLR,,0.00,0.0,WeatherDisplay:10.37,2013-02-06 19:53:00,
2013-02-06 19:59:00,36.5,28.3,30.12,SW,233,3.5,3.5,72,0.00,CLR,,0.00,0.0,WeatherDisplay:10.37,2013-02-06 19:59:00,
2013-02-06 20:04:00,36.3,28.1,30.11,SW,234,1.1,0.0,72,0.00,CLR,,0.00,0.0,WeatherDisplay:10.37,2013-02-06 20:04:00,
2013-02-06 20:09:00,36.1,27.9,30.11,SW,233,2.3,2.3,72,0.00,CLR,,0.00,0.0,WeatherDisplay:10.37,2013-02-06 20:09:00,
2013-02-06 20:14:00,36.0,28.2,30.12,SW,233,3.5,3.5,73,0.00,CLR,,0.00,0.0,WeatherDisplay:10.37,2013-02-06 20:14:00,
2013-02-06 20:19:00,35.8,28.0,30.12,SW,219,3.5,3.5,73,0.00,CLR,,0.00,0.0,WeatherDisplay:10.37,2013-02-06 20:19:00,
2013-02-06 20:24:00,35.7,27.9,30.11,SW,221,5.0,5.0,73,0.00,CLR,,0.00,0.0,WeatherDisplay:10.37,2013-02-06 20:24:00,
2013-02-06 20:29:00,35.7,27.9,30.11,SW,220,6.9,6.9,73,0.00,CLR,,0.00,0.0,WeatherDisplay:10.37,2013-02-06 20:29:00,
2013-02-06 20:34:00,35.8,28.0,30.11,SSW,212,5.0,5.0,73,0.00,CLR,,0.00,0.0,WeatherDisplay:10.37,2013-02-06 20:34:00,
2013-02-06 20:39:00,36.0,28.2,30.11,SW,222,10.4,10.4,73,0.00,CLR,,0.00,0.0,WeatherDisplay:10.37,2013-02-06 20:39:00,
2013-02-06 20:44:00,36.1,27.9,30.11,SW,228,9.2,9.2,72,0.00,CLR,,0.00,0.0,WeatherDisplay:10.37,2013-02-06 20:44:00,
2013-02-06 20:49:00,36.3,27.8,30.11,SSW,211,6.0,6.0,71,0.00,CLR,,0.00,0.0,WeatherDisplay:10.37,2013-02-06 20:49:00,
2013-02-06 20:54:00,36.5,28.0,30.11,SW,215,8.1,8.1,71,0.00,CLR,,0.00,0.0,WeatherDisplay:10.37,2013-02-06 20:54:00,
2013-02-06 20:59:00,36.7,28.2,30.11,SW,215,9.2,9.2,71,0.00,CLR,,0.00,0.0,WeatherDisplay:10.37,2013-02-06 20:59:00,
2013-02-06 21:04:00,36.8,28.3,30.12,SW,226,12.7,12.7,71,0.00,CLR,,0.00,0.0,WeatherDisplay:10.37,2013-02-06 21:04:00,
2013-02-06 21:09:00,36.9,28.4,30.12,SW,224,2.0,2.2,71,0.00,CLR,,0.00,0.0,WeatherDisplay:10.37,2013-02-06 21:09:00,
2013-02-06 21:14:00,37.0,28.1,30.12,SW,232,6.9,6.9,70,0.00,CLR,,0.00,0.0,WeatherDisplay:10.37,2013-02-06 21:14:00,
2013-02-06 21:19:00,37.0,28.1,30.12,SW,231,2.3,0.0,70,0.00,CLR,,0.00,0.0,WeatherDisplay:10.37,2013-02-06 21:19:00,
2013-02-06 21:24:00,37.0,28.5,30.11,SW,230,3.5,3.5,71,0.00,CLR,,0.00,0.0,WeatherDisplay:10.37,2013-02-06 21:24:00,
2013-02-06 21:29:00,37.0,28.5,30.12,SW,231,3.5,3.5,71,0.00,CLR,,0.00,0.0,WeatherDisplay:10.37,2013-02-06 21:29:00,
2013-02-06 21:34:00,36.9,28.0,30.11,SW,223,10.4,10.4,70,0.00,CLR,,0.00,0.0,WeatherDisplay:10.37,2013-02-06 21:34:00,
2013-02-06 21:39:00,36.9,28.0,30.12,SW,224,9.2,9.2,70,0.00,CLR,,0.00,0.0,WeatherDisplay:10.37,2013-02-06 21:39:00,
2013-02-06 21:44:00,37.0,27.8,30.12,SW,227,6.9,6.9,69,0.00,CLR,,0.00,0.0,WeatherDisplay:10.37,2013-02-06 21:44:00,
2013-02-06 21:49:00,37.1,27.9,30.11,SW,236,11.5,11.5,69,0.00,CLR,,0.00,0.0,WeatherDisplay:10.37,2013-02-06 21:49:00,
2013-02-06 21:54:00,37.1,28.2,30.12,WSW,240,4.6,4.6,70,0.00,CLR,,0.00,0.0,WeatherDisplay:10.37,2013-02-06 21:54:00,
2013-02-06 21:59:00,37.0,28.1,30.12,WSW,246,10.4,10.4,70,0.00,CLR,,0.00,0.0,WeatherDisplay:10.37,2013-02-06 21:59:00,
2013-02-06 22:04:00,37.0,28.1,30.12,SW,236,3.5,3.5,70,0.00,CLR,,0.00,0.0,WeatherDisplay:10.37,2013-02-06 22:04:00,
2013-02-06 22:09:00,36.9,28.4,30.11,SW,236,0.0,0.0,71,0.00,CLR,,0.00,0.0,WeatherDisplay:10.37,2013-02-06 22:09:00,
2013-02-06 22:14:00,36.7,28.2,30.12,SW,236,0.0,0.0,71,0.00,CLR,,0.00,0.0,WeatherDisplay:10.37,2013-02-06 22:14:00,
2013-02-06 22:19:00,36.6,28.1,30.11,SW,236,1.1,1.1,71,0.00,CLR,,0.00,0.0,WeatherDisplay:10.37,2013-02-06 22:19:00,
2013-02-06 22:24:00,36.4,28.2,30.11,SW,236,0.0,0.0,72,0.00,CLR,,0.00,0.0,WeatherDisplay:10.37,2013-02-06 22:24:00,
2013-02-06 22:29:00,36.1,27.9,30.12,SW,236,0.0,0.0,72,0.00,CLR,,0.00,0.0,WeatherDisplay:10.37,2013-02-06 22:29:00,
2013-02-06 22:34:00,35.8,28.0,30.12,WSW,237,3.5,3.5,73,0.00,CLR,,0.00,0.0,WeatherDisplay:10.37,2013-02-06 22:34:00,
2013-02-06 22:39:00,35.6,27.8,30.12,WSW,237,2.3,2.3,73,0.00,CLR,,0.00,0.0,WeatherDisplay:10.37,2013-02-06 22:39:00,
2013-02-06 22:44:00,35.3,27.5,30.12,WSW,242,4.6,4.6,73,0.00,CLR,,0.00,0.0,WeatherDisplay:10.37,2013-02-06 22:44:00,
2013-02-06 22:49:00,35.0,27.5,30.12,WSW,242,4.6,4.6,74,0.00,CLR,,0.00,0.0,WeatherDisplay:10.37,2013-02-06 22:49:00,
2013-02-06 22:54:00,34.8,27.4,30.12,WSW,245,3.5,3.5,74,0.00,CLR,,0.00,0.0,WeatherDisplay:10.37,2013-02-06 22:54:00,
2013-02-06 22:59:00,34.5,27.1,30.12,WSW,251,3.5,3.5,74,0.00,CLR,,0.00,0.0,WeatherDisplay:10.37,2013-02-06 22:59:00,
2013-02-06 23:04:00,34.3,26.9,30.12,WSW,251,0.0,0.0,74,0.00,CLR,,0.00,0.0,WeatherDisplay:10.37,2013-02-06 23:04:00,
2013-02-06 23:09:00,34.1,27.0,30.12,WSW,251,0.0,0.0,75,0.00,CLR,,0.00,0.0,WeatherDisplay:10.37,2013-02-06 23:09:00,
2013-02-06 23:14:00,33.9,26.8,30.12,WSW,251,0.0,0.0,75,0.00,CLR,,0.00,0.0,WeatherDisplay:10.37,2013-02-06 23:14:00,
2013-02-06 23:19:00,33.7,26.6,30.12,WSW,250,0.0,0.0,75,0.00,CLR,,0.00,0.0,WeatherDisplay:10.37,2013-02-06 23:19:00,
2013-02-06 23:24:00,33.4,26.3,30.12,WSW,250,0.0,0.0,75,0.00,CLR,,0.00,0.0,WeatherDisplay:10.37,2013-02-06 23:24:00,
2013-02-06 23:29:00,33.2,26.1,30.12,WSW,250,0.0,0.4,75,0.00,CLR,,0.00,0.0,WeatherDisplay:10.37,2013-02-06 23:29:00,
2013-02-06 23:34:00,32.9,25.8,30.12,WSW,250,0.0,0.0,75,0.00,CLR,,0.00,0.0,WeatherDisplay:10.37,2013-02-06 23:34:00,
2013-02-06 23:39:00,32.7,25.6,30.12,WSW,250,0.0,0.3,75,0.00,CLR,,0.00,0.0,WeatherDisplay:10.37,2013-02-06 23:39:00,
2013-02-06 23:44:00,32.7,26.0,30.12,WSW,251,0.0,0.0,76,0.00,CLR,,0.00,0.0,WeatherDisplay:10.37,2013-02-06 23:44:00,
2013-02-06 23:49:00,32.4,25.7,30.12,WSW,251,0.0,0.0,76,0.00,CLR,,0.00,0.0,WeatherDisplay:10.37,2013-02-06 23:49:00,
2013-02-06 23:54:00,32.2,25.5,30.12,WSW,250,2.3,0.0,76,0.00,CLR,,0.00,0.0,WeatherDisplay:10.37,2013-02-06 23:54:00,
2013-02-06 23:59:00,32.0,25.6,30.12,WSW,250,2.3,0.0,77,0.00,CLR,,0.00,0.0,WeatherDisplay:10.37,2013-02-06 23:59:00,